sensor_id;sensor_type;location;lat;lon;timestamp;pressure;altitude;pressure_sealevel;temperature;humidity
32033;BME280;31720;52.638;9.216;2023-07-28T00:00:01;99992.75;;;17.24;100.00
32033;BME280;31720;52.638;9.216;2023-07-28T00:03:04;99996.41;;;17.23;100.00
32033;BME280;31720;52.638;9.216;2023-07-28T00:06:05;99983.13;;;17.23;100.00
32033;BME280;31720;52.638;9.216;2023-07-28T00:09:06;99993.91;;;17.22;100.00
32033;BME280;31720;52.638;9.216;2023-07-28T00:12:08;99996.25;;;17.25;100.00
32033;BME280;31720;52.638;9.216;2023-07-28T00:15:09;99993.91;;;17.22;100.00
32033;BME280;31720;52.638;9.216;2023-07-28T00:18:12;99994.72;;;17.22;100.00
32033;BME280;31720;52.638;9.216;2023-07-28T00:21:14;99993.91;;;17.22;100.00
32033;BME280;31720;52.638;9.216;2023-07-28T00:24:16;99997.66;;;17.19;100.00
32033;BME280;31720;52.638;9.216;2023-07-28T00:27:17;99993.59;;;17.25;100.00
32033;BME280;31720;52.638;9.216;2023-07-28T00:30:19;99997.22;;;17.24;100.00
32033;BME280;31720;52.638;9.216;2023-07-28T00:33:22;100001.16;;;17.20;100.00
32033;BME280;31720;52.638;9.216;2023-07-28T00:36:23;99998.66;;;17.18;100.00
32033;BME280;31720;52.638;9.216;2023-07-28T00:39:24;99996.13;;;17.27;100.00
32033;BME280;31720;52.638;9.216;2023-07-28T00:42:26;99994.31;;;17.17;100.00
32033;BME280;31720;52.638;9.216;2023-07-28T00:45:28;99989.97;;;17.16;100.00
32033;BME280;31720;52.638;9.216;2023-07-28T00:48:31;99997.94;;;17.16;100.00
32033;BME280;31720;52.638;9.216;2023-07-28T00:51:33;99990.13;;;17.15;100.00
32033;BME280;31720;52.638;9.216;2023-07-28T00:54:36;100004.38;;;17.14;100.00
32033;BME280;31720;52.638;9.216;2023-07-28T00:57:37;99992.78;;;17.15;100.00
32033;BME280;31720;52.638;9.216;2023-07-28T01:00:39;99993.75;;;17.14;100.00
32033;BME280;31720;52.638;9.216;2023-07-28T01:03:42;99989.72;;;17.10;100.00
32033;BME280;31720;52.638;9.216;2023-07-28T01:06:50;99993.63;;;17.15;100.00
32033;BME280;31720;52.638;9.216;2023-07-28T01:09:59;99990.41;;;17.21;100.00
32033;BME280;31720;52.638;9.216;2023-07-28T01:13:02;99982.56;;;17.20;100.00
32033;BME280;31720;52.638;9.216;2023-07-28T01:16:03;99975.72;;;17.27;100.00
32033;BME280;31720;52.638;9.216;2023-07-28T01:19:06;99965.38;;;17.24;100.00
32033;BME280;31720;52.638;9.216;2023-07-28T01:22:35;99986.47;;;17.25;100.00
32033;BME280;31720;52.638;9.216;2023-07-28T01:25:47;99990.25;;;17.23;100.00
32033;BME280;31720;52.638;9.216;2023-07-28T01:28:51;99989.41;;;17.22;100.00
32033;BME280;31720;52.638;9.216;2023-07-28T01:31:53;99983.41;;;17.20;100.00
32033;BME280;31720;52.638;9.216;2023-07-28T01:34:54;99987.03;;;17.19;100.00
32033;BME280;31720;52.638;9.216;2023-07-28T01:37:56;99987.31;;;17.16;100.00
32033;BME280;31720;52.638;9.216;2023-07-28T01:40:57;99985.66;;;17.15;100.00
32033;BME280;31720;52.638;9.216;2023-07-28T01:44:00;99980.34;;;17.15;100.00
32033;BME280;31720;52.638;9.216;2023-07-28T01:47:03;99975.19;;;17.14;100.00
32033;BME280;31720;52.638;9.216;2023-07-28T01:50:05;99989.44;;;17.13;100.00
32033;BME280;31720;52.638;9.216;2023-07-28T01:53:07;99989.56;;;17.11;100.00
32033;BME280;31720;52.638;9.216;2023-07-28T01:56:09;99989.28;;;17.14;100.00
32033;BME280;31720;52.638;9.216;2023-07-28T01:59:11;99991.13;;;17.14;100.00
32033;BME280;31720;52.638;9.216;2023-07-28T02:02:13;99994.59;;;17.14;100.00
32033;BME280;31720;52.638;9.216;2023-07-28T02:05:14;99998.38;;;17.12;100.00
32033;BME280;31720;52.638;9.216;2023-07-28T02:08:16;99998.91;;;17.15;100.00
32033;BME280;31720;52.638;9.216;2023-07-28T02:11:17;99992.63;;;17.16;100.00
32033;BME280;31720;52.638;9.216;2023-07-28T02:14:20;99991.94;;;17.14;100.00
32033;BME280;31720;52.638;9.216;2023-07-28T02:17:21;100001.56;;;17.15;100.00
32033;BME280;31720;52.638;9.216;2023-07-28T02:20:23;99993.63;;;17.15;100.00
32033;BME280;31720;52.638;9.216;2023-07-28T02:23:24;99997.81;;;17.18;100.00
32033;BME280;31720;52.638;9.216;2023-07-28T02:26:26;99993.34;;;17.18;100.00
32033;BME280;31720;52.638;9.216;2023-07-28T02:29:28;99996.00;;;17.18;100.00
32033;BME280;31720;52.638;9.216;2023-07-28T02:32:30;99997.81;;;17.18;100.00
32033;BME280;31720;52.638;9.216;2023-07-28T02:35:31;100002.97;;;17.19;100.00
32033;BME280;31720;52.638;9.216;2023-07-28T02:38:33;100003.13;;;17.18;100.00
32033;BME280;31720;52.638;9.216;2023-07-28T02:41:34;100011.22;;;17.16;100.00
32033;BME280;31720;52.638;9.216;2023-07-28T02:44:37;100003.13;;;17.18;100.00
32033;BME280;31720;52.638;9.216;2023-07-28T02:47:38;100005.38;;;17.13;100.00
32033;BME280;31720;52.638;9.216;2023-07-28T02:50:45;100010.53;;;17.14;100.00
32033;BME280;31720;52.638;9.216;2023-07-28T02:53:46;100016.94;;;17.12;100.00
32033;BME280;31720;52.638;9.216;2023-07-28T02:56:48;100025.78;;;17.12;100.00
32033;BME280;31720;52.638;9.216;2023-07-28T02:59:50;100021.84;;;17.07;100.00
32033;BME280;31720;52.638;9.216;2023-07-28T03:02:52;100027.16;;;17.07;100.00
32033;BME280;31720;52.638;9.216;2023-07-28T03:05:53;100015.84;;;17.05;100.00
32033;BME280;31720;52.638;9.216;2023-07-28T03:08:55;100026.59;;;17.03;100.00
32033;BME280;31720;52.638;9.216;2023-07-28T03:11:56;100003.41;;;17.05;100.00
32033;BME280;31720;52.638;9.216;2023-07-28T03:14:59;100019.06;;;17.08;100.00
32033;BME280;31720;52.638;9.216;2023-07-28T03:18:00;100023.25;;;17.11;100.00
32033;BME280;31720;52.638;9.216;2023-07-28T03:21:02;100032.34;;;17.08;100.00
32033;BME280;31720;52.638;9.216;2023-07-28T03:24:04;100029.81;;;17.07;100.00
32033;BME280;31720;52.638;9.216;2023-07-28T03:27:06;100030.81;;;17.06;100.00
32033;BME280;31720;52.638;9.216;2023-07-28T03:30:10;100040.84;;;17.12;100.00
32033;BME280;31720;52.638;9.216;2023-07-28T03:33:11;100039.44;;;17.08;100.00
32033;BME280;31720;52.638;9.216;2023-07-28T03:36:13;100045.03;;;17.14;100.00
32033;BME280;31720;52.638;9.216;2023-07-28T03:39:14;100044.22;;;17.14;100.00
32033;BME280;31720;52.638;9.216;2023-07-28T03:42:16;100042.41;;;17.14;100.00
32033;BME280;31720;52.638;9.216;2023-07-28T03:45:18;100043.06;;;17.16;100.00
32033;BME280;31720;52.638;9.216;2023-07-28T03:48:20;100045.31;;;17.11;100.00
32033;BME280;31720;52.638;9.216;2023-07-28T03:51:21;100048.81;;;17.12;100.00
32033;BME280;31720;52.638;9.216;2023-07-28T03:54:23;100049.69;;;17.12;100.00
32033;BME280;31720;52.638;9.216;2023-07-28T03:57:24;100052.19;;;17.04;100.00
32033;BME280;31720;52.638;9.216;2023-07-28T04:00:29;100051.63;;;17.01;100.00
32033;BME280;31720;52.638;9.216;2023-07-28T04:03:30;100047.97;;;17.02;100.00
32033;BME280;31720;52.638;9.216;2023-07-28T04:06:41;100043.50;;;17.02;100.00
32033;BME280;31720;52.638;9.216;2023-07-28T04:09:43;100047.16;;;17.01;100.00
32033;BME280;31720;52.638;9.216;2023-07-28T04:12:45;100057.09;;;16.99;100.00
32033;BME280;31720;52.638;9.216;2023-07-28T04:15:47;100042.94;;;16.98;100.00
32033;BME280;31720;52.638;9.216;2023-07-28T04:18:49;100064.19;;;16.98;100.00
32033;BME280;31720;52.638;9.216;2023-07-28T04:21:50;100051.47;;;17.02;100.00
32033;BME280;31720;52.638;9.216;2023-07-28T04:24:52;100059.03;;;16.97;100.00
32033;BME280;31720;52.638;9.216;2023-07-28T04:27:54;100063.22;;;16.99;100.00
32033;BME280;31720;52.638;9.216;2023-07-28T04:30:57;100058.03;;;17.08;100.00
32033;BME280;31720;52.638;9.216;2023-07-28T04:33:59;100071.03;;;17.01;100.00
32033;BME280;31720;52.638;9.216;2023-07-28T04:37:00;100066.28;;;17.05;100.00
32033;BME280;31720;52.638;9.216;2023-07-28T04:40:02;100069.78;;;17.05;100.00
32033;BME280;31720;52.638;9.216;2023-07-28T04:43:04;100073.00;;;17.09;100.00
32033;BME280;31720;52.638;9.216;2023-07-28T04:46:06;100069.78;;;17.05;100.00
32033;BME280;31720;52.638;9.216;2023-07-28T04:49:08;100077.59;;;17.07;100.00
32033;BME280;31720;52.638;9.216;2023-07-28T04:52:10;100081.81;;;17.09;100.00
32033;BME280;31720;52.638;9.216;2023-07-28T04:55:12;100085.28;;;17.10;100.00
32033;BME280;31720;52.638;9.216;2023-07-28T04:58:13;100088.63;;;17.12;100.00
32033;BME280;31720;52.638;9.216;2023-07-28T05:01:16;100080.41;;;17.05;100.00
32033;BME280;31720;52.638;9.216;2023-07-28T05:04:18;100089.22;;;17.06;100.00
32033;BME280;31720;52.638;9.216;2023-07-28T05:07:20;100095.19;;;17.08;100.00
32033;BME280;31720;52.638;9.216;2023-07-28T05:10:21;100098.56;;;17.10;100.00
32033;BME280;31720;52.638;9.216;2023-07-28T05:13:23;100105.44;;;17.12;100.00
32033;BME280;31720;52.638;9.216;2023-07-28T05:16:25;100108.09;;;17.12;100.00
32033;BME280;31720;52.638;9.216;2023-07-28T05:19:27;100107.78;;;17.15;100.00
32033;BME280;31720;52.638;9.216;2023-07-28T05:22:28;100113.94;;;17.16;100.00
32033;BME280;31720;52.638;9.216;2023-07-28T05:25:30;100106.53;;;17.19;100.00
32033;BME280;31720;52.638;9.216;2023-07-28T05:28:34;100110.84;;;17.20;100.00
32033;BME280;31720;52.638;9.216;2023-07-28T05:31:37;100115.06;;;17.23;100.00
32033;BME280;31720;52.638;9.216;2023-07-28T05:34:41;100116.31;;;17.29;100.00
32033;BME280;31720;52.638;9.216;2023-07-28T05:37:43;100111.56;;;17.32;100.00
32033;BME280;31720;52.638;9.216;2023-07-28T05:40:44;100113.81;;;17.27;100.00
32033;BME280;31720;52.638;9.216;2023-07-28T05:43:46;100117.56;;;17.24;100.00
32033;BME280;31720;52.638;9.216;2023-07-28T05:46:48;100120.09;;;17.26;100.00
32033;BME280;31720;52.638;9.216;2023-07-28T05:49:51;100119.81;;;17.29;100.00
32033;BME280;31720;52.638;9.216;2023-07-28T05:52:53;100121.63;;;17.29;100.00
32033;BME280;31720;52.638;9.216;2023-07-28T05:55:55;100117.72;;;17.33;100.00
32033;BME280;31720;52.638;9.216;2023-07-28T05:58:56;100115.75;;;17.35;100.00
32033;BME280;31720;52.638;9.216;2023-07-28T06:01:59;100124.28;;;17.38;100.00
32033;BME280;31720;52.638;9.216;2023-07-28T06:05:00;100121.78;;;17.37;100.00
32033;BME280;31720;52.638;9.216;2023-07-28T06:08:02;100128.47;;;17.41;100.00
32033;BME280;31720;52.638;9.216;2023-07-28T06:11:04;100122.44;;;17.39;100.00
32033;BME280;31720;52.638;9.216;2023-07-28T06:14:06;100130.31;;;17.40;100.00
32033;BME280;31720;52.638;9.216;2023-07-28T06:17:09;100133.78;;;17.41;100.00
32033;BME280;31720;52.638;9.216;2023-07-28T06:20:11;100138.28;;;17.40;100.00
32033;BME280;31720;52.638;9.216;2023-07-28T06:23:12;100141.34;;;17.45;100.00
32033;BME280;31720;52.638;9.216;2023-07-28T06:26:14;100143.84;;;17.47;100.00
32033;BME280;31720;52.638;9.216;2023-07-28T06:29:15;100141.91;;;17.49;100.00
32033;BME280;31720;52.638;9.216;2023-07-28T06:32:18;100144.69;;;17.47;100.00
32033;BME280;31720;52.638;9.216;2023-07-28T06:35:20;100149.72;;;17.50;100.00
32033;BME280;31720;52.638;9.216;2023-07-28T06:38:22;100156.84;;;17.50;100.00
32033;BME280;31720;52.638;9.216;2023-07-28T06:41:24;100157.41;;;17.54;100.00
32033;BME280;31720;52.638;9.216;2023-07-28T06:44:25;100153.91;;;17.63;100.00
32033;BME280;31720;52.638;9.216;2023-07-28T06:47:28;100165.25;;;17.55;100.00
32033;BME280;31720;52.638;9.216;2023-07-28T06:50:30;100168.88;;;17.54;100.00
32033;BME280;31720;52.638;9.216;2023-07-28T06:53:32;100172.22;;;17.56;100.00
32033;BME280;31720;52.638;9.216;2023-07-28T06:56:34;100178.38;;;17.57;100.00
32033;BME280;31720;52.638;9.216;2023-07-28T06:59:36;100180.19;;;17.56;100.00
32033;BME280;31720;52.638;9.216;2023-07-28T07:02:39;100181.19;;;17.55;100.00
32033;BME280;31720;52.638;9.216;2023-07-28T07:05:40;100186.66;;;17.54;100.00
32033;BME280;31720;52.638;9.216;2023-07-28T07:08:43;100193.75;;;17.53;100.00
32033;BME280;31720;52.638;9.216;2023-07-28T07:11:45;100193.47;;;17.56;100.00
32033;BME280;31720;52.638;9.216;2023-07-28T07:14:46;100198.09;;;17.54;100.00
32033;BME280;31720;52.638;9.216;2023-07-28T07:17:49;100192.78;;;17.54;100.00
32033;BME280;31720;52.638;9.216;2023-07-28T07:20:51;100196.97;;;17.57;100.00
32033;BME280;31720;52.638;9.216;2023-07-28T07:23:52;100196.41;;;17.53;100.00
32033;BME280;31720;52.638;9.216;2023-07-28T07:26:54;100197.97;;;17.56;100.00
32033;BME280;31720;52.638;9.216;2023-07-28T07:29:55;100200.75;;;17.54;100.00
32033;BME280;31720;52.638;9.216;2023-07-28T07:32:58;100202.72;;;17.52;100.00
32033;BME280;31720;52.638;9.216;2023-07-28T07:35:59;100202.28;;;17.57;100.00
32033;BME280;31720;52.638;9.216;2023-07-28T07:39:01;100204.53;;;17.61;100.00
32033;BME280;31720;52.638;9.216;2023-07-28T07:42:03;100208.72;;;17.64;100.00
32033;BME280;31720;52.638;9.216;2023-07-28T07:45:06;100211.13;;;17.67;100.00
32033;BME280;31720;52.638;9.216;2023-07-28T07:48:09;100214.47;;;17.69;100.00
32033;BME280;31720;52.638;9.216;2023-07-28T07:51:10;100217.69;;;17.72;100.00
32033;BME280;31720;52.638;9.216;2023-07-28T07:54:12;100219.94;;;17.77;100.00
32033;BME280;31720;52.638;9.216;2023-07-28T07:57:16;100225.25;;;17.87;100.00
32033;BME280;31720;52.638;9.216;2023-07-28T08:00:18;100217.69;;;17.92;100.00
32033;BME280;31720;52.638;9.216;2023-07-28T08:03:20;100222.72;;;17.95;100.00
32033;BME280;31720;52.638;9.216;2023-07-28T08:06:22;100226.06;;;17.97;100.00
32033;BME280;31720;52.638;9.216;2023-07-28T08:09:23;100232.78;;;18.01;100.00
32033;BME280;31720;52.638;9.216;2023-07-28T08:12:25;100237.69;;;18.06;100.00
32033;BME280;31720;52.638;9.216;2023-07-28T08:15:26;100237.09;;;18.12;100.00
32033;BME280;31720;52.638;9.216;2023-07-28T08:18:29;100240.75;;;18.11;100.00
32033;BME280;31720;52.638;9.216;2023-07-28T08:21:30;100248.28;;;18.15;100.00
32033;BME280;31720;52.638;9.216;2023-07-28T08:24:36;100253.50;;;18.17;100.00
32033;BME280;31720;52.638;9.216;2023-07-28T08:27:38;100253.34;;;18.18;100.00
32033;BME280;31720;52.638;9.216;2023-07-28T08:30:39;100255.13;;;18.28;100.00
32033;BME280;31720;52.638;9.216;2023-07-28T08:33:42;100257.38;;;18.32;100.00
32033;BME280;31720;52.638;9.216;2023-07-28T08:36:43;100255.28;;;18.36;100.00
32033;BME280;31720;52.638;9.216;2023-07-28T08:39:45;100261.56;;;18.44;100.00
32033;BME280;31720;52.638;9.216;2023-07-28T08:42:46;100263.19;;;18.55;100.00
32033;BME280;31720;52.638;9.216;2023-07-28T08:45:50;100266.97;;;18.62;100.00
32033;BME280;31720;52.638;9.216;2023-07-28T08:48:54;100279.28;;;18.63;100.00
32033;BME280;31720;52.638;9.216;2023-07-28T08:51:58;100283.44;;;18.75;100.00
32033;BME280;31720;52.638;9.216;2023-07-28T08:55:00;100282.16;;;18.80;100.00
32033;BME280;31720;52.638;9.216;2023-07-28T08:58:14;100280.78;;;18.85;100.00
32033;BME280;31720;52.638;9.216;2023-07-28T09:01:16;100281.28;;;18.89;100.00
32033;BME280;31720;52.638;9.216;2023-07-28T09:04:19;100286.44;;;19.00;100.00
32033;BME280;31720;52.638;9.216;2023-07-28T09:07:21;100290.50;;;19.04;100.00
32033;BME280;31720;52.638;9.216;2023-07-28T09:10:22;100296.66;;;19.05;100.00
32033;BME280;31720;52.638;9.216;2023-07-28T09:13:25;100295.94;;;19.12;100.00
32033;BME280;31720;52.638;9.216;2023-07-28T09:16:26;100300.94;;;19.15;100.00
32033;BME280;31720;52.638;9.216;2023-07-28T09:19:30;100297.28;;;19.16;100.00
32033;BME280;31720;52.638;9.216;2023-07-28T09:22:32;100295.47;;;19.17;100.00
32033;BME280;31720;52.638;9.216;2023-07-28T09:25:34;100292.75;;;19.26;100.00
32033;BME280;31720;52.638;9.216;2023-07-28T09:28:37;100295.50;;;19.35;100.00
32033;BME280;31720;52.638;9.216;2023-07-28T09:31:39;100297.59;;;19.41;100.00
32033;BME280;31720;52.638;9.216;2023-07-28T09:34:41;100300.19;;;19.50;100.00
32033;BME280;31720;52.638;9.216;2023-07-28T09:37:44;100296.69;;;19.50;100.00
32033;BME280;31720;52.638;9.216;2023-07-28T09:40:48;100294.53;;;19.63;100.00
32033;BME280;31720;52.638;9.216;2023-07-28T09:43:50;100304.94;;;19.74;100.00
32033;BME280;31720;52.638;9.216;2023-07-28T09:46:53;100311.81;;;19.77;100.00
32033;BME280;31720;52.638;9.216;2023-07-28T09:49:57;100307.03;;;19.81;100.00
32033;BME280;31720;52.638;9.216;2023-07-28T09:53:02;100303.19;;;19.83;100.00
32033;BME280;31720;52.638;9.216;2023-07-28T09:56:04;100301.38;;;19.84;100.00
32033;BME280;31720;52.638;9.216;2023-07-28T09:59:10;100306.84;;;20.00;100.00
32033;BME280;31720;52.638;9.216;2023-07-28T10:02:13;100296.56;;;20.05;100.00
32033;BME280;31720;52.638;9.216;2023-07-28T10:05:16;100313.09;;;20.09;100.00
32033;BME280;31720;52.638;9.216;2023-07-28T10:08:18;100310.28;;;20.10;100.00
32033;BME280;31720;52.638;9.216;2023-07-28T10:11:20;100311.66;;;20.14;100.00
32033;BME280;31720;52.638;9.216;2023-07-28T10:14:26;100314.25;;;20.06;100.00
32033;BME280;31720;52.638;9.216;2023-07-28T10:17:31;100308.81;;;19.98;100.00
32033;BME280;31720;52.638;9.216;2023-07-28T10:20:36;100312.66;;;19.95;100.00
32033;BME280;31720;52.638;9.216;2023-07-28T10:23:38;100317.91;;;19.87;100.00
32033;BME280;31720;52.638;9.216;2023-07-28T10:26:41;100312.88;;;19.84;100.00
32033;BME280;31720;52.638;9.216;2023-07-28T10:29:56;100314.03;;;19.82;100.00
32033;BME280;31720;52.638;9.216;2023-07-28T10:32:57;100319.13;;;19.93;100.00
32033;BME280;31720;52.638;9.216;2023-07-28T10:36:11;100315.16;;;20.15;100.00
32033;BME280;31720;52.638;9.216;2023-07-28T10:39:14;100315.28;;;20.31;100.00
32033;BME280;31720;52.638;9.216;2023-07-28T10:42:17;100321.13;;;20.52;100.00
32033;BME280;31720;52.638;9.216;2023-07-28T10:45:20;100318.50;;;20.61;100.00
32033;BME280;31720;52.638;9.216;2023-07-28T10:48:22;100313.06;;;20.70;100.00
32033;BME280;31720;52.638;9.216;2023-07-28T10:51:26;100311.81;;;20.83;100.00
32033;BME280;31720;52.638;9.216;2023-07-28T10:54:31;100315.41;;;20.99;100.00
32033;BME280;31720;52.638;9.216;2023-07-28T10:57:32;100319.38;;;20.95;100.00
32033;BME280;31720;52.638;9.216;2023-07-28T11:00:34;100320.75;;;20.99;100.00
32033;BME280;31720;52.638;9.216;2023-07-28T11:03:35;100321.94;;;21.05;100.00
32033;BME280;31720;52.638;9.216;2023-07-28T11:06:40;100321.38;;;21.27;100.00
32033;BME280;31720;52.638;9.216;2023-07-28T11:09:42;100319.00;;;21.24;100.00
32033;BME280;31720;52.638;9.216;2023-07-28T11:12:45;100312.59;;;21.43;100.00
32033;BME280;31720;52.638;9.216;2023-07-28T11:15:46;100314.78;;;21.56;100.00
32033;BME280;31720;52.638;9.216;2023-07-28T11:18:48;100314.44;;;21.51;100.00
32033;BME280;31720;52.638;9.216;2023-07-28T11:21:51;100317.94;;;21.43;100.00
32033;BME280;31720;52.638;9.216;2023-07-28T11:24:53;100309.03;;;21.35;100.00
32033;BME280;31720;52.638;9.216;2023-07-28T11:27:54;100322.50;;;21.17;100.00
32033;BME280;31720;52.638;9.216;2023-07-28T11:30:56;100322.94;;;21.04;100.00
32033;BME280;31720;52.638;9.216;2023-07-28T11:33:57;100322.72;;;20.89;100.00
32033;BME280;31720;52.638;9.216;2023-07-28T11:37:00;100318.75;;;20.75;100.00
32033;BME280;31720;52.638;9.216;2023-07-28T11:40:05;100333.59;;;20.70;100.00
32033;BME280;31720;52.638;9.216;2023-07-28T11:43:07;100323.72;;;20.62;100.00
32033;BME280;31720;52.638;9.216;2023-07-28T11:46:34;100318.69;;;20.59;100.00
32033;BME280;31720;52.638;9.216;2023-07-28T11:49:45;100311.03;;;20.90;100.00
32033;BME280;31720;52.638;9.216;2023-07-28T11:52:48;100310.56;;;21.37;100.00
32033;BME280;31720;52.638;9.216;2023-07-28T11:55:50;100319.19;;;21.82;100.00
32033;BME280;31720;52.638;9.216;2023-07-28T11:58:52;100312.84;;;21.91;100.00
32033;BME280;31720;52.638;9.216;2023-07-28T12:01:55;100320.69;;;21.84;100.00
32033;BME280;31720;52.638;9.216;2023-07-28T12:04:57;100318.50;;;21.79;100.00
32033;BME280;31720;52.638;9.216;2023-07-28T12:08:00;100319.19;;;21.73;100.00
32033;BME280;31720;52.638;9.216;2023-07-28T12:11:03;100323.00;;;21.71;100.00
32033;BME280;31720;52.638;9.216;2023-07-28T12:17:11;100324.22;;;21.85;100.00
32033;BME280;31720;52.638;9.216;2023-07-28T12:20:13;100317.22;;;22.00;100.00
32033;BME280;31720;52.638;9.216;2023-07-28T12:23:17;100331.75;;;21.97;100.00
32033;BME280;31720;52.638;9.216;2023-07-28T12:26:19;100336.44;;;21.95;100.00
32033;BME280;31720;52.638;9.216;2023-07-28T12:29:20;100338.09;;;21.88;100.00
32033;BME280;31720;52.638;9.216;2023-07-28T12:32:22;100333.66;;;22.13;100.00
32033;BME280;31720;52.638;9.216;2023-07-28T12:35:24;100337.31;;;22.53;100.00
32033;BME280;31720;52.638;9.216;2023-07-28T12:38:29;100350.31;;;22.97;100.00
32033;BME280;31720;52.638;9.216;2023-07-28T12:41:31;100361.53;;;23.00;100.00
32033;BME280;31720;52.638;9.216;2023-07-28T12:44:32;100347.41;;;23.07;100.00
32033;BME280;31720;52.638;9.216;2023-07-28T12:47:34;100348.69;;;23.27;100.00
32033;BME280;31720;52.638;9.216;2023-07-28T12:50:35;100356.00;;;23.41;100.00
32033;BME280;31720;52.638;9.216;2023-07-28T12:53:38;100351.88;;;23.62;100.00
32033;BME280;31720;52.638;9.216;2023-07-28T12:56:40;100359.09;;;23.61;100.00
32033;BME280;31720;52.638;9.216;2023-07-28T12:59:41;100350.19;;;23.69;100.00
32033;BME280;31720;52.638;9.216;2023-07-28T13:02:43;100353.97;;;23.83;100.00
32033;BME280;31720;52.638;9.216;2023-07-28T13:05:45;100357.09;;;23.94;100.00
32033;BME280;31720;52.638;9.216;2023-07-28T13:08:49;100349.81;;;24.03;100.00
32033;BME280;31720;52.638;9.216;2023-07-28T13:11:51;100349.69;;;23.96;100.00
32033;BME280;31720;52.638;9.216;2023-07-28T13:14:52;100355.41;;;23.62;100.00
32033;BME280;31720;52.638;9.216;2023-07-28T13:17:53;100356.00;;;23.41;100.00
32033;BME280;31720;52.638;9.216;2023-07-28T13:20:55;100363.75;;;23.36;100.00
32033;BME280;31720;52.638;9.216;2023-07-28T13:23:58;100359.91;;;23.70;100.00
32033;BME280;31720;52.638;9.216;2023-07-28T13:26:59;100357.50;;;24.06;100.00
32033;BME280;31720;52.638;9.216;2023-07-28T13:30:01;100365.28;;;23.70;100.00
32033;BME280;31720;52.638;9.216;2023-07-28T13:33:05;100358.16;;;23.46;100.00
32033;BME280;31720;52.638;9.216;2023-07-28T13:36:06;100354.00;;;23.74;100.00
32033;BME280;31720;52.638;9.216;2023-07-28T13:39:09;100367.44;;;23.97;100.00
32033;BME280;31720;52.638;9.216;2023-07-28T13:42:11;100356.69;;;23.74;100.00
32033;BME280;31720;52.638;9.216;2023-07-28T13:45:15;100361.16;;;23.51;100.00
32033;BME280;31720;52.638;9.216;2023-07-28T13:48:17;100348.69;;;23.27;100.00
32033;BME280;31720;52.638;9.216;2023-07-28T13:51:18;100352.72;;;23.23;100.00
32033;BME280;31720;52.638;9.216;2023-07-28T13:54:21;100344.91;;;23.13;100.00
32033;BME280;31720;52.638;9.216;2023-07-28T13:57:23;100350.91;;;23.15;100.00
32033;BME280;31720;52.638;9.216;2023-07-28T14:00:24;100354.94;;;23.11;100.00
32033;BME280;31720;52.638;9.216;2023-07-28T14:03:25;100363.69;;;23.05;100.00
32033;BME280;31720;52.638;9.216;2023-07-28T14:06:27;100375.13;;;22.91;100.00
32033;BME280;31720;52.638;9.216;2023-07-28T14:09:30;100387.69;;;22.49;100.00
32033;BME280;31720;52.638;9.216;2023-07-28T14:12:31;100380.25;;;21.94;100.00
32033;BME280;31720;52.638;9.216;2023-07-28T14:15:32;100387.81;;;21.57;100.00
32033;BME280;31720;52.638;9.216;2023-07-28T14:18:34;100390.69;;;21.29;100.00
32033;BME280;31720;52.638;9.216;2023-07-28T14:21:35;100374.66;;;20.95;100.00
32033;BME280;31720;52.638;9.216;2023-07-28T14:24:39;100376.75;;;20.83;100.00
32033;BME280;31720;52.638;9.216;2023-07-28T14:27:40;100379.31;;;20.93;100.00
32033;BME280;31720;52.638;9.216;2023-07-28T14:30:42;100389.25;;;21.09;100.00
32033;BME280;31720;52.638;9.216;2023-07-28T14:33:46;100386.72;;;21.07;100.00
32033;BME280;31720;52.638;9.216;2023-07-28T14:36:47;100399.44;;;21.05;100.00
32033;BME280;31720;52.638;9.216;2023-07-28T14:39:50;100394.38;;;21.02;100.00
32033;BME280;31720;52.638;9.216;2023-07-28T14:42:51;100397.69;;;20.96;100.00
32033;BME280;31720;52.638;9.216;2023-07-28T14:45:53;100400.31;;;20.88;100.00
32033;BME280;31720;52.638;9.216;2023-07-28T14:48:55;100400.41;;;20.78;100.00
32033;BME280;31720;52.638;9.216;2023-07-28T14:51:56;100394.19;;;20.69;100.00
32033;BME280;31720;52.638;9.216;2023-07-28T14:54:59;100405.22;;;20.48;100.00
32033;BME280;31720;52.638;9.216;2023-07-28T14:58:00;100408.44;;;20.42;100.00
32033;BME280;31720;52.638;9.216;2023-07-28T15:01:02;100414.31;;;20.46;100.00
32033;BME280;31720;52.638;9.216;2023-07-28T15:04:04;100424.09;;;20.37;100.00
32033;BME280;31720;52.638;9.216;2023-07-28T15:07:06;100422.44;;;20.54;100.00
32033;BME280;31720;52.638;9.216;2023-07-28T15:10:10;100415.94;;;20.57;100.00
32033;BME280;31720;52.638;9.216;2023-07-28T15:13:11;100404.31;;;20.66;100.00
32033;BME280;31720;52.638;9.216;2023-07-28T15:16:12;100404.19;;;20.67;100.00
32033;BME280;31720;52.638;9.216;2023-07-28T15:19:14;100405.41;;;20.73;100.00
32033;BME280;31720;52.638;9.216;2023-07-28T15:22:15;100404.28;;;20.84;100.00
32033;BME280;31720;52.638;9.216;2023-07-28T15:25:18;100408.69;;;20.93;100.00
32033;BME280;31720;52.638;9.216;2023-07-28T15:28:20;100402.84;;;20.89;100.00
32033;BME280;31720;52.638;9.216;2023-07-28T15:31:21;100398.34;;;20.90;100.00
32033;BME280;31720;52.638;9.216;2023-07-28T15:34:22;100400.69;;;20.93;100.00
32033;BME280;31720;52.638;9.216;2023-07-28T15:37:24;100407.75;;;21.02;100.00
32033;BME280;31720;52.638;9.216;2023-07-28T15:40:27;100397.03;;;20.94;100.00
32033;BME280;31720;52.638;9.216;2023-07-28T15:43:28;100402.50;;;20.92;100.00